createdAt,value
2023-03-31T00:01:00.934Z,10.87
2023-03-31T00:03:51.960Z,10.87
2023-03-31T00:06:43.114Z,10.85
2023-03-31T00:09:33.555Z,10.83
2023-03-31T00:12:23.987Z,10.83
2023-03-31T00:15:15.207Z,10.81
2023-03-31T00:18:06.058Z,10.77
2023-03-31T00:21:02.583Z,10.75
2023-03-31T00:23:53.904Z,10.73
2023-03-31T00:26:44.505Z,10.70
2023-03-31T00:29:35.947Z,10.71
2023-03-31T00:32:26.594Z,10.70
2023-03-31T00:35:17.502Z,10.69
2023-03-31T00:38:09.103Z,10.65
2023-03-31T00:41:00.116Z,10.62
2023-03-31T00:44:06.600Z,10.60
2023-03-31T00:46:58.318Z,10.59
2023-03-31T00:49:49.580Z,10.56
2023-03-31T00:52:41.476Z,10.55
2023-03-31T00:55:34.514Z,10.53
2023-03-31T00:58:28.362Z,10.51
2023-03-31T01:01:20.101Z,10.49
2023-03-31T01:04:10.729Z,10.47
2023-03-31T01:07:04.795Z,10.45
2023-03-31T01:09:59.228Z,10.41
2023-03-31T01:12:50.708Z,10.39
2023-03-31T01:15:42.334Z,10.35
2023-03-31T01:18:35.297Z,10.32
2023-03-31T01:21:47.350Z,10.24
2023-03-31T01:24:54.472Z,10.16
2023-03-31T01:27:59.171Z,10.11
2023-03-31T01:31:20.604Z,10.08
2023-03-31T01:34:38.160Z,10.07
2023-03-31T01:37:56.531Z,10.04
2023-03-31T01:40:55.858Z,10.01
2023-03-31T01:43:49.136Z,10.00
2023-03-31T01:46:41.585Z,9.99
2023-03-31T01:49:34.478Z,9.99
2023-03-31T01:52:26.233Z,9.98
2023-03-31T01:55:19.968Z,9.99
2023-03-31T01:58:12.524Z,10.00
2023-03-31T02:01:06.719Z,10.01
2023-03-31T02:03:59.133Z,9.98
2023-03-31T02:06:56.310Z,9.96
2023-03-31T02:09:47.918Z,9.96
2023-03-31T02:12:39.771Z,9.96
2023-03-31T02:15:31.383Z,9.96
2023-03-31T02:18:26.227Z,9.97
2023-03-31T02:21:16.856Z,10.00
2023-03-31T02:24:09.464Z,10.00
2023-03-31T02:27:09.648Z,10.00
2023-03-31T02:30:00.037Z,10.00
2023-03-31T02:32:51.107Z,10.03
2023-03-31T02:35:41.648Z,10.06
2023-03-31T02:38:33.116Z,10.08
2023-03-31T02:41:23.908Z,10.08
2023-03-31T02:44:14.769Z,10.07
2023-03-31T02:47:05.300Z,10.09
2023-03-31T02:49:59.453Z,10.13
2023-03-31T02:52:54.720Z,10.17
2023-03-31T02:55:52.328Z,10.18
2023-03-31T02:58:52.577Z,10.20
2023-03-31T03:01:49.311Z,10.21
2023-03-31T03:04:51.081Z,10.21
2023-03-31T03:07:45.917Z,10.21
2023-03-31T03:10:40.094Z,10.23
2023-03-31T03:13:34.627Z,10.24
2023-03-31T03:16:27.461Z,10.25
2023-03-31T03:19:22.169Z,10.26
2023-03-31T03:22:12.524Z,10.27
2023-03-31T03:25:03.378Z,10.30
2023-03-31T03:27:54.662Z,10.30
2023-03-31T03:30:46.069Z,10.29
2023-03-31T03:33:36.476Z,10.28
2023-03-31T03:36:27.096Z,10.28
2023-03-31T03:39:17.505Z,10.29
2023-03-31T03:42:08.195Z,10.31
2023-03-31T03:44:58.936Z,10.32
2023-03-31T03:47:49.556Z,10.31
2023-03-31T03:50:41.396Z,10.27
2023-03-31T03:53:32.313Z,10.24
2023-03-31T03:56:23.246Z,10.23
2023-03-31T03:59:14.719Z,10.21
2023-03-31T04:02:05.142Z,10.22
2023-03-31T04:04:55.861Z,10.22
2023-03-31T04:07:46.207Z,10.22
2023-03-31T04:10:36.718Z,10.21
2023-03-31T04:13:27.300Z,10.22
2023-03-31T04:16:17.966Z,10.22
2023-03-31T04:19:13.437Z,10.22
2023-03-31T04:22:04.951Z,10.22
2023-03-31T04:24:58.771Z,10.18
2023-03-31T04:27:50.733Z,10.13
2023-03-31T04:30:41.783Z,10.09
2023-03-31T04:33:34.163Z,10.06
2023-03-31T04:36:24.706Z,10.07
2023-03-31T04:39:15.252Z,10.08
2023-03-31T04:42:08.742Z,10.06
2023-03-31T04:44:59.570Z,10.02
2023-03-31T04:47:50.180Z,9.99
2023-03-31T04:50:40.722Z,10.02
2023-03-31T04:53:31.656Z,10.01
2023-03-31T04:56:22.865Z,9.99
2023-03-31T04:59:13.394Z,9.99
2023-03-31T05:02:03.916Z,9.93
2023-03-31T05:04:54.915Z,9.86
2023-03-31T05:07:46.279Z,9.80
2023-03-31T05:10:37.042Z,9.76
2023-03-31T05:13:27.674Z,9.69
2023-03-31T05:16:18.535Z,9.59
2023-03-31T05:19:09.117Z,9.56
2023-03-31T05:21:59.625Z,9.52
2023-03-31T05:24:50.184Z,9.52
2023-03-31T05:27:40.679Z,9.48
2023-03-31T05:30:31.070Z,9.49
2023-03-31T05:33:22.365Z,9.52
2023-03-31T05:36:13.893Z,9.54
2023-03-31T05:39:04.275Z,9.56
2023-03-31T05:41:54.815Z,9.58
2023-03-31T05:44:45.798Z,9.58
2023-03-31T05:47:36.780Z,9.53
2023-03-31T05:50:27.842Z,9.51
2023-03-31T05:53:18.871Z,9.51
2023-03-31T05:56:10.293Z,9.52
2023-03-31T05:59:02.288Z,9.58
2023-03-31T06:01:52.704Z,9.59
2023-03-31T06:04:43.878Z,9.61
2023-03-31T06:07:34.582Z,9.62
2023-03-31T06:10:25.115Z,9.62
2023-03-31T06:13:15.457Z,9.66
2023-03-31T06:16:06.438Z,9.67
2023-03-31T06:18:57.397Z,9.68
2023-03-31T06:21:48.291Z,9.72
2023-03-31T06:24:38.868Z,9.72
2023-03-31T06:27:29.486Z,9.73
2023-03-31T06:30:20.481Z,9.75
2023-03-31T06:33:11.401Z,9.74
2023-03-31T06:36:04.768Z,9.74
2023-03-31T06:38:56.183Z,9.75
2023-03-31T06:41:46.841Z,9.79
2023-03-31T06:44:42.628Z,9.84
2023-03-31T06:47:33.170Z,9.86
2023-03-31T06:50:23.680Z,9.86
2023-03-31T06:53:14.536Z,9.92
2023-03-31T06:56:06.255Z,9.97
2023-03-31T06:58:56.801Z,10.01
2023-03-31T07:01:49.040Z,10.05
2023-03-31T07:04:40.085Z,10.10
2023-03-31T07:07:33.375Z,10.13
2023-03-31T07:10:24.870Z,10.22
2023-03-31T07:13:16.233Z,10.26
2023-03-31T07:16:08.453Z,10.32
2023-03-31T07:19:04.393Z,10.38
2023-03-31T07:21:56.795Z,10.45
2023-03-31T07:24:47.722Z,10.53
2023-03-31T07:27:38.375Z,10.61
2023-03-31T07:30:29.384Z,10.70
2023-03-31T07:33:20.929Z,10.76
2023-03-31T07:36:14.234Z,10.83
2023-03-31T07:39:07.459Z,10.93
2023-03-31T07:41:58.076Z,11.01
2023-03-31T07:44:48.740Z,11.10
2023-03-31T07:47:40.148Z,11.19
2023-03-31T07:50:30.990Z,11.31
2023-03-31T07:53:22.179Z,11.49
2023-03-31T07:56:13.303Z,11.68
2023-03-31T07:59:04.070Z,11.88
2023-03-31T08:01:54.388Z,12.13
2023-03-31T08:04:45.392Z,12.27
2023-03-31T08:07:37.371Z,12.30
2023-03-31T08:10:28.728Z,12.31
2023-03-31T08:13:19.568Z,12.35
2023-03-31T08:16:10.386Z,12.41
2023-03-31T08:19:01.974Z,12.44
2023-03-31T08:21:52.730Z,12.41
2023-03-31T08:24:43.442Z,12.45
2023-03-31T08:27:36.590Z,12.54
2023-03-31T08:30:26.994Z,12.57
2023-03-31T08:33:19.052Z,12.66
2023-03-31T08:36:11.166Z,12.73
2023-03-31T08:39:01.918Z,12.81
2023-03-31T08:41:58.396Z,12.87
2023-03-31T08:44:51.287Z,13.04
2023-03-31T08:47:42.175Z,13.15
2023-03-31T08:50:33.323Z,13.21
2023-03-31T08:53:26.311Z,13.23
2023-03-31T08:56:18.761Z,13.27
2023-03-31T08:59:14.052Z,13.24
2023-03-31T09:02:11.757Z,13.27
2023-03-31T09:05:32.008Z,13.30
2023-03-31T09:08:29.708Z,13.29
2023-03-31T09:11:27.282Z,13.26
2023-03-31T09:14:21.210Z,13.26
2023-03-31T09:17:17.597Z,13.23
2023-03-31T09:20:13.541Z,13.22
2023-03-31T09:23:07.890Z,13.23
2023-03-31T09:25:58.826Z,13.34
2023-03-31T09:28:49.301Z,13.44
2023-03-31T09:31:41.131Z,13.56
2023-03-31T09:34:33.642Z,13.67
2023-03-31T09:37:24.193Z,13.74
2023-03-31T09:40:19.850Z,13.77
2023-03-31T09:43:14.154Z,13.73
2023-03-31T09:46:09.349Z,13.76
2023-03-31T09:49:04.436Z,13.82
2023-03-31T09:52:06.499Z,13.94
2023-03-31T09:54:59.202Z,14.12
2023-03-31T09:57:49.837Z,14.27
2023-03-31T10:00:41.180Z,14.47
2023-03-31T10:03:36.951Z,14.59
2023-03-31T10:06:27.726Z,14.61
2023-03-31T10:09:18.585Z,14.71
2023-03-31T10:12:10.229Z,14.76
2023-03-31T10:15:17.858Z,14.84
2023-03-31T10:18:12.646Z,15.07
2023-03-31T10:21:04.911Z,15.22
2023-03-31T10:23:56.382Z,15.32
2023-03-31T10:26:50.431Z,15.51
2023-03-31T10:29:41.194Z,15.81
2023-03-31T10:32:32.722Z,16.17
2023-03-31T10:35:27.859Z,16.47
2023-03-31T10:38:21.582Z,16.65
2023-03-31T10:41:12.253Z,16.91
2023-03-31T10:44:03.639Z,17.26
2023-03-31T10:46:54.969Z,17.67
2023-03-31T10:49:46.289Z,17.78
2023-03-31T10:52:37.329Z,17.84
2023-03-31T10:55:30.380Z,17.92
2023-03-31T10:58:28.144Z,17.84
2023-03-31T11:01:27.313Z,17.67
2023-03-31T11:04:33.169Z,17.50
2023-03-31T11:07:33.023Z,17.44
2023-03-31T11:10:31.732Z,17.37
2023-03-31T11:13:25.185Z,17.45
2023-03-31T11:16:21.574Z,17.46
2023-03-31T11:19:15.985Z,17.54
2023-03-31T11:22:11.001Z,17.58
2023-03-31T11:25:20.501Z,17.41
2023-03-31T11:28:30.333Z,17.27
2023-03-31T11:31:31.955Z,17.14
2023-03-31T11:34:42.251Z,16.99
2023-03-31T11:37:46.063Z,16.87
2023-03-31T11:40:46.878Z,16.80
2023-03-31T11:43:39.906Z,16.72
2023-03-31T11:46:33.295Z,16.67
2023-03-31T11:49:25.859Z,16.60
2023-03-31T11:52:18.395Z,16.55
2023-03-31T11:55:15.661Z,16.45
2023-03-31T11:58:08.610Z,16.38
2023-03-31T12:01:03.101Z,16.33
2023-03-31T12:04:00.577Z,16.23
2023-03-31T12:06:51.697Z,16.15
2023-03-31T12:09:48.482Z,16.10
2023-03-31T12:12:40.912Z,15.98
2023-03-31T12:15:32.599Z,15.87
2023-03-31T12:18:25.517Z,15.75
2023-03-31T12:21:16.231Z,15.64
2023-03-31T12:24:08.531Z,15.57
2023-03-31T12:27:04.923Z,15.51
2023-03-31T12:29:58.292Z,15.39
2023-03-31T12:32:50.789Z,15.24
2023-03-31T12:35:46.482Z,15.13
2023-03-31T12:38:46.523Z,15.05
2023-03-31T12:41:39.860Z,14.96
2023-03-31T12:44:35.902Z,14.93
2023-03-31T12:47:38.153Z,14.93
2023-03-31T12:50:37.214Z,14.94
2023-03-31T12:53:32.549Z,14.99
2023-03-31T12:56:23.609Z,15.08
2023-03-31T12:59:23.994Z,15.16
2023-03-31T13:02:26.853Z,15.30
2023-03-31T13:05:48.740Z,15.46
2023-03-31T13:08:56.194Z,15.62
2023-03-31T13:11:48.460Z,15.81
2023-03-31T13:14:40.402Z,16.02
2023-03-31T13:17:32.813Z,16.24
2023-03-31T13:20:46.544Z,16.38
2023-03-31T13:23:37.877Z,16.44
2023-03-31T13:26:42.774Z,16.39
2023-03-31T13:29:42.803Z,16.38
2023-03-31T13:32:33.873Z,16.40
2023-03-31T13:35:26.876Z,16.47
2023-03-31T13:38:21.092Z,16.58
2023-03-31T13:41:17.029Z,16.71
2023-03-31T13:44:29.526Z,16.82
2023-03-31T13:47:38.455Z,16.87
2023-03-31T13:50:38.094Z,16.92
2023-03-31T13:53:39.511Z,16.93
2023-03-31T13:56:36.819Z,16.92
2023-03-31T13:59:34.945Z,16.88
2023-03-31T14:02:37.359Z,16.88
2023-03-31T14:05:33.294Z,16.84
2023-03-31T14:08:28.774Z,16.80
2023-03-31T14:11:22.668Z,16.74
2023-03-31T14:14:16.573Z,16.65
2023-03-31T14:17:06.967Z,16.55
2023-03-31T14:20:08.011Z,16.46
2023-03-31T14:23:04.649Z,16.33
2023-03-31T14:25:57.698Z,16.18
2023-03-31T14:28:58.318Z,16.06
2023-03-31T14:31:52.018Z,15.94
2023-03-31T14:34:51.676Z,15.80
2023-03-31T14:37:42.529Z,15.59
2023-03-31T14:40:32.867Z,15.39
2023-03-31T14:43:25.366Z,15.19
2023-03-31T14:46:19.526Z,15.01
2023-03-31T14:49:26.355Z,14.85
2023-03-31T14:52:18.585Z,14.73
2023-03-31T14:55:16.445Z,14.61
2023-03-31T14:58:06.970Z,14.54
2023-03-31T15:00:57.680Z,14.52
2023-03-31T15:03:48.692Z,14.54
2023-03-31T15:06:40.025Z,14.57
2023-03-31T15:09:31.420Z,14.60
2023-03-31T15:12:23.526Z,14.62
2023-03-31T15:15:14.744Z,14.63
2023-03-31T15:18:05.515Z,14.62
2023-03-31T15:20:56.168Z,14.58
2023-03-31T15:23:46.510Z,14.53
2023-03-31T15:26:41.464Z,14.41
2023-03-31T15:29:35.891Z,14.29
2023-03-31T15:32:28.305Z,14.18
2023-03-31T15:35:23.663Z,14.01
2023-03-31T15:38:16.488Z,13.89
2023-03-31T15:41:07.466Z,13.84
2023-03-31T15:44:06.628Z,13.78
2023-03-31T15:47:02.057Z,13.71
2023-03-31T15:49:54.724Z,13.63
2023-03-31T15:52:53.175Z,13.58
2023-03-31T15:58:59.467Z,13.50
2023-03-31T16:01:50.017Z,13.47
2023-03-31T16:04:40.757Z,13.43
2023-03-31T16:07:33.371Z,13.39
2023-03-31T16:10:24.009Z,13.38
2023-03-31T16:13:17.668Z,13.38
2023-03-31T16:16:09.862Z,13.36
2023-03-31T16:19:05.164Z,13.36
2023-03-31T16:21:56.454Z,13.37
2023-03-31T16:24:47.688Z,13.35
2023-03-31T16:27:42.500Z,13.33
2023-03-31T16:30:39.946Z,13.34
2023-03-31T16:33:31.520Z,13.33
2023-03-31T16:36:22.435Z,13.34
2023-03-31T16:39:13.115Z,13.33
2023-03-31T16:42:03.652Z,13.33
2023-03-31T16:47:48.550Z,13.29
2023-03-31T16:50:40.697Z,13.24
2023-03-31T16:53:33.800Z,13.22
2023-03-31T16:56:24.620Z,13.18
2023-03-31T16:59:15.202Z,13.16
2023-03-31T17:02:05.752Z,13.14
2023-03-31T17:04:59.738Z,13.14
2023-03-31T17:07:58.009Z,13.13
2023-03-31T17:10:54.088Z,13.12
2023-03-31T17:13:44.833Z,13.08
2023-03-31T17:16:47.482Z,13.04
2023-03-31T17:19:39.297Z,13.01
2023-03-31T17:22:29.872Z,12.99
2023-03-31T17:25:20.883Z,12.96
2023-03-31T17:28:11.878Z,12.96
2023-03-31T17:31:02.578Z,12.92
2023-03-31T17:33:54.006Z,12.84
2023-03-31T17:36:45.160Z,12.75
2023-03-31T17:39:36.168Z,12.63
2023-03-31T17:42:26.733Z,12.52
2023-03-31T17:45:17.771Z,12.42
2023-03-31T17:48:09.992Z,12.27
2023-03-31T17:51:04.677Z,12.13
2023-03-31T17:53:56.392Z,12.06
2023-03-31T17:56:50.214Z,11.97
2023-03-31T17:59:41.592Z,11.86
2023-03-31T18:02:32.787Z,11.78
2023-03-31T18:05:23.306Z,11.75
2023-03-31T18:08:13.980Z,11.69
2023-03-31T18:11:05.238Z,11.63
2023-03-31T18:13:56.373Z,11.58
2023-03-31T18:16:48.135Z,11.57
2023-03-31T18:19:39.381Z,11.56
2023-03-31T18:22:30.036Z,11.54
2023-03-31T18:25:20.811Z,11.52
2023-03-31T18:28:14.005Z,11.49
2023-03-31T18:31:06.187Z,11.43
2023-03-31T18:33:57.839Z,11.40
2023-03-31T18:36:48.889Z,11.40
2023-03-31T18:39:39.875Z,11.43
2023-03-31T18:42:30.926Z,11.46
2023-03-31T18:45:22.016Z,11.50
2023-03-31T18:48:12.465Z,11.55
2023-03-31T18:51:02.794Z,11.58
2023-03-31T18:53:53.975Z,11.58
2023-03-31T18:56:46.501Z,11.59
2023-03-31T18:59:37.473Z,11.61
2023-03-31T19:02:28.334Z,11.62
2023-03-31T19:05:18.886Z,11.62
2023-03-31T19:08:09.538Z,11.65
2023-03-31T19:11:10.077Z,11.68
2023-03-31T19:14:00.313Z,11.72
2023-03-31T19:16:51.050Z,11.75
2023-03-31T19:19:41.617Z,11.77
2023-03-31T19:22:32.117Z,11.81
2023-03-31T19:25:24.220Z,11.85
2023-03-31T19:28:19.233Z,11.86
2023-03-31T19:31:10.833Z,11.86
2023-03-31T19:34:03.550Z,11.86
2023-03-31T19:37:05.252Z,11.83
2023-03-31T19:39:59.598Z,11.83
2023-03-31T19:42:51.838Z,11.84
2023-03-31T19:45:42.415Z,11.88
2023-03-31T19:48:34.156Z,11.90
2023-03-31T19:51:25.821Z,11.89
2023-03-31T19:54:17.789Z,11.82
2023-03-31T19:57:11.767Z,11.76
2023-03-31T20:00:05.533Z,11.72
2023-03-31T20:03:00.443Z,11.66
2023-03-31T20:05:54.080Z,11.59
2023-03-31T20:08:45.043Z,11.60
2023-03-31T20:11:36.785Z,11.61
2023-03-31T20:14:28.297Z,11.56
2023-03-31T20:17:20.684Z,11.51
2023-03-31T20:20:13.179Z,11.49
2023-03-31T20:23:07.199Z,11.45
2023-03-31T20:25:58.150Z,11.41
2023-03-31T20:28:49.290Z,11.36
2023-03-31T20:31:40.190Z,11.33
2023-03-31T20:34:31.739Z,11.34
2023-03-31T20:37:22.160Z,11.34
2023-03-31T20:40:13.622Z,11.29
2023-03-31T20:43:04.114Z,11.24
2023-03-31T20:46:02.952Z,11.17
2023-03-31T20:48:55.163Z,11.13
2023-03-31T20:51:47.197Z,11.09
2023-03-31T20:54:38.366Z,11.07
2023-03-31T20:57:29.201Z,11.05
2023-03-31T21:00:20.723Z,11.03
2023-03-31T21:03:12.058Z,11.03
2023-03-31T21:06:05.247Z,11.03
2023-03-31T21:08:58.491Z,11.02
2023-03-31T21:11:48.874Z,11.01
2023-03-31T21:14:39.539Z,11.02
2023-03-31T21:17:30.492Z,11.04
2023-03-31T21:20:21.446Z,11.02
2023-03-31T21:23:12.848Z,10.99
2023-03-31T21:26:03.932Z,10.96
2023-03-31T21:28:54.944Z,10.94
2023-03-31T21:31:47.260Z,10.92
2023-03-31T21:34:38.157Z,10.91
2023-03-31T21:37:28.850Z,10.93
2023-03-31T21:40:21.685Z,10.94
2023-03-31T21:43:12.268Z,10.97
2023-03-31T21:46:02.961Z,10.99
2023-03-31T21:48:53.265Z,10.98
2023-03-31T21:51:43.783Z,10.98
2023-03-31T21:54:36.754Z,10.99
2023-03-31T21:57:27.376Z,11.02
2023-03-31T22:00:18.986Z,11.03
2023-03-31T22:03:25.720Z,11.06
2023-03-31T22:06:18.206Z,11.09
2023-03-31T22:09:08.723Z,11.13
2023-03-31T22:11:59.146Z,11.16
2023-03-31T22:14:49.971Z,11.17
2023-03-31T22:17:40.625Z,11.18
2023-03-31T22:20:31.881Z,11.17
2023-03-31T22:23:27.776Z,11.17
2023-03-31T22:26:18.721Z,11.18
2023-03-31T22:29:09.034Z,11.17
2023-03-31T22:31:59.671Z,11.18
2023-03-31T22:34:50.578Z,11.18
2023-03-31T22:37:41.251Z,11.11
2023-03-31T22:40:31.736Z,11.06
2023-03-31T22:43:22.221Z,10.99
2023-03-31T22:46:12.774Z,10.95
2023-03-31T22:49:03.382Z,10.90
2023-03-31T22:51:56.029Z,10.86
2023-03-31T22:54:47.176Z,10.84
2023-03-31T22:57:38.233Z,10.80
2023-03-31T23:00:29.015Z,10.78
2023-03-31T23:03:19.429Z,10.77
2023-03-31T23:06:10.512Z,10.76
2023-03-31T23:09:01.234Z,10.75
2023-03-31T23:11:52.224Z,10.76
2023-03-31T23:14:42.676Z,10.78
2023-03-31T23:17:33.338Z,10.79
2023-03-31T23:20:24.563Z,10.82
2023-03-31T23:23:15.131Z,10.80
2023-03-31T23:26:06.255Z,10.80
2023-03-31T23:28:57.724Z,10.81
2023-03-31T23:31:48.600Z,10.83
2023-03-31T23:34:41.824Z,10.81
2023-03-31T23:37:32.566Z,10.78
2023-03-31T23:40:22.993Z,10.80
2023-03-31T23:43:13.688Z,10.81
2023-03-31T23:46:06.391Z,10.83
2023-03-31T23:48:57.179Z,10.84
2023-03-31T23:51:48.038Z,10.85
2023-03-31T23:54:38.521Z,10.85
2023-03-31T23:57:28.919Z,10.85
